<?xml version="1.0" encoding="UTF-8" standalone="no" ?>
<gpx xmlns="http://www.topografix.com/GPX/1/1" xmlns:xsi="http://www.w3.org/2001/XMLSchema-instance" xsi:schemaLocation="http://www.topografix.com/GPX/1/1 http://www.topografix.com/GPX/1/1/gpx.xsd" version="1.1" creator="VisuGPX - https://www.visugpx.com">
  <metadata>
    <name>Raid VTT IFV 2022 de l'enfer</name>
    <desc><![CDATA[Tracé du raid avec le découpage en segments de guidage individuels avec thème d'animation imposé]]></desc>
  </metadata>
  <trk>
    <name><![CDATA[J1 - RUN 3 - Valentin]]></name>
    <desc><![CDATA[Patrimoine : Thorame-Haute]]></desc>
    <extensions>
      <line xmlns="http://www.topografix.com/GPX/gpx_style/0/2">
        <color>FF0000</color>
        <width>4</width>
          <extensions>
            <sens>1</sens>
          </extensions>
      </line>
    </extensions>
    <trkseg>
      <trkpt lat="44.10387" lon="6.56985">
        <ele>1103</ele>
        <time>2021-11-16T02:38:15Z</time>
      </trkpt>
      <trkpt lat="44.10376" lon="6.56954">
        <ele>1107</ele>
        <time>2021-11-16T02:38:21Z</time>
      </trkpt>
      <trkpt lat="44.10364" lon="6.56929">
        <ele>1109</ele>
        <time>2021-11-16T02:38:26Z</time>
      </trkpt>
      <trkpt lat="44.10286" lon="6.56839">
        <ele>1110</ele>
        <time>2021-11-16T02:38:49Z</time>
      </trkpt>
      <trkpt lat="44.10208" lon="6.56727">
        <ele>1110</ele>
        <time>2021-11-16T02:39:15Z</time>
      </trkpt>
      <trkpt lat="44.10186" lon="6.5669">
        <ele>1113</ele>
        <time>2021-11-16T02:39:24Z</time>
      </trkpt>
      <trkpt lat="44.10118" lon="6.56602">
        <ele>1114</ele>
        <time>2021-11-16T02:39:45Z</time>
      </trkpt>
      <trkpt lat="44.101" lon="6.56568">
        <ele>1116</ele>
        <time>2021-11-16T02:39:52Z</time>
      </trkpt>
      <trkpt lat="44.10055" lon="6.56522">
        <ele>1118</ele>
        <time>2021-11-16T02:40:05Z</time>
      </trkpt>
      <trkpt lat="44.10033" lon="6.56496">
        <ele>1118</ele>
        <time>2021-11-16T02:40:12Z</time>
      </trkpt>
      <trkpt lat="44.09997" lon="6.56426">
        <ele>1122</ele>
        <time>2021-11-16T02:40:27Z</time>
      </trkpt>
      <trkpt lat="44.09968" lon="6.56392">
        <ele>1123</ele>
        <time>2021-11-16T02:40:35Z</time>
      </trkpt>
      <trkpt lat="44.09848" lon="6.56282">
        <ele>1122</ele>
        <time>2021-11-16T02:41:09Z</time>
      </trkpt>
      <trkpt lat="44.09791" lon="6.56214">
        <ele>1121</ele>
        <time>2021-11-16T02:41:26Z</time>
      </trkpt>
      <trkpt lat="44.09698" lon="6.56065">
        <ele>1121</ele>
        <time>2021-11-16T02:42:00Z</time>
      </trkpt>
      <trkpt lat="44.09678" lon="6.56004">
        <ele>1122</ele>
        <time>2021-11-16T02:42:11Z</time>
      </trkpt>
      <trkpt lat="44.09676" lon="6.55975">
        <ele>1122</ele>
        <time>2021-11-16T02:42:16Z</time>
      </trkpt>
      <trkpt lat="44.09694" lon="6.55811">
        <ele>1130</ele>
        <time>2021-11-16T02:42:44Z</time>
      </trkpt>
      <trkpt lat="44.09694" lon="6.55699">
        <ele>1137</ele>
        <time>2021-11-16T02:43:02Z</time>
      </trkpt>
      <trkpt lat="44.09689" lon="6.55607">
        <ele>1144</ele>
        <time>2021-11-16T02:43:18Z</time>
      </trkpt>
      <trkpt lat="44.09682" lon="6.55594">
        <ele>1144</ele>
        <time>2021-11-16T02:43:21Z</time>
      </trkpt>
      <trkpt lat="44.09677" lon="6.5556">
        <ele>1145</ele>
        <time>2021-11-16T02:43:26Z</time>
      </trkpt>
      <trkpt lat="44.09666" lon="6.55544">
        <ele>1144</ele>
        <time>2021-11-16T02:43:30Z</time>
      </trkpt>
      <trkpt lat="44.09646" lon="6.55544">
        <ele>1143</ele>
        <time>2021-11-16T02:43:35Z</time>
      </trkpt>
      <trkpt lat="44.09604" lon="6.55564">
        <ele>1140</ele>
        <time>2021-11-16T02:43:45Z</time>
      </trkpt>
      <trkpt lat="44.09564" lon="6.55588">
        <ele>1136</ele>
        <time>2021-11-16T02:43:55Z</time>
      </trkpt>
      <trkpt lat="44.09544" lon="6.55597">
        <ele>1135</ele>
        <time>2021-11-16T02:44:00Z</time>
      </trkpt>
      <trkpt lat="44.09507" lon="6.55621">
        <ele>1130</ele>
        <time>2021-11-16T02:44:10Z</time>
      </trkpt>
      <trkpt lat="44.09484" lon="6.55618">
        <ele>1129</ele>
        <time>2021-11-16T02:44:15Z</time>
      </trkpt>
      <trkpt lat="44.09461" lon="6.5561">
        <ele>1127</ele>
        <time>2021-11-16T02:44:21Z</time>
      </trkpt>
      <trkpt lat="44.09445" lon="6.55597">
        <ele>1125</ele>
        <time>2021-11-16T02:44:25Z</time>
      </trkpt>
      <trkpt lat="44.09429" lon="6.55575">
        <ele>1125</ele>
        <time>2021-11-16T02:44:30Z</time>
      </trkpt>
      <trkpt lat="44.09407" lon="6.55559">
        <ele>1126</ele>
        <time>2021-11-16T02:44:36Z</time>
      </trkpt>
      <trkpt lat="44.09385" lon="6.55556">
        <ele>1124</ele>
        <time>2021-11-16T02:44:41Z</time>
      </trkpt>
      <trkpt lat="44.09356" lon="6.55563">
        <ele>1121</ele>
        <time>2021-11-16T02:44:48Z</time>
      </trkpt>
      <trkpt lat="44.0934" lon="6.55579">
        <ele>1117</ele>
        <time>2021-11-16T02:44:53Z</time>
      </trkpt>
      <trkpt lat="44.09314" lon="6.55585">
        <ele>1115</ele>
        <time>2021-11-16T02:44:59Z</time>
      </trkpt>
      <trkpt lat="44.09269" lon="6.55571">
        <ele>1116</ele>
        <time>2021-11-16T02:45:10Z</time>
      </trkpt>
      <trkpt lat="44.09226" lon="6.55568">
        <ele>1113</ele>
        <time>2021-11-16T02:45:20Z</time>
      </trkpt>
      <trkpt lat="44.09196" lon="6.5556">
        <ele>1111</ele>
        <time>2021-11-16T02:45:27Z</time>
      </trkpt>
      <trkpt lat="44.09165" lon="6.55562">
        <ele>1108</ele>
        <time>2021-11-16T02:45:34Z</time>
      </trkpt>
      <trkpt lat="44.09137" lon="6.5556">
        <ele>1107</ele>
        <time>2021-11-16T02:45:41Z</time>
      </trkpt>
      <trkpt lat="44.09065" lon="6.55566">
        <ele>1104</ele>
        <time>2021-11-16T02:45:57Z</time>
      </trkpt>
      <trkpt lat="44.09039" lon="6.55565">
        <ele>1104</ele>
        <time>2021-11-16T02:46:03Z</time>
      </trkpt>
      <trkpt lat="44.09017" lon="6.55561">
        <ele>1104</ele>
        <time>2021-11-16T02:46:09Z</time>
      </trkpt>
      <trkpt lat="44.0893" lon="6.55564">
        <ele>1107</ele>
        <time>2021-11-16T02:46:29Z</time>
      </trkpt>
      <trkpt lat="44.0885" lon="6.55563">
        <ele>1112</ele>
        <time>2021-11-16T02:46:48Z</time>
      </trkpt>
      <trkpt lat="44.0883" lon="6.5557">
        <ele>1113</ele>
        <time>2021-11-16T02:46:52Z</time>
      </trkpt>
      <trkpt lat="44.08814" lon="6.55592">
        <ele>1113</ele>
        <time>2021-11-16T02:46:58Z</time>
      </trkpt>
      <trkpt lat="44.08786" lon="6.55651">
        <ele>1113</ele>
        <time>2021-11-16T02:47:10Z</time>
      </trkpt>
      <trkpt lat="44.08775" lon="6.55666">
        <ele>1113</ele>
        <time>2021-11-15T18:51:04Z</time>
      </trkpt>
      <trkpt lat="44.08743" lon="6.55702">
        <ele>1110</ele>
        <time>2021-11-15T18:51:13Z</time>
      </trkpt>
      <trkpt lat="44.08707" lon="6.55728">
        <ele>1106</ele>
        <time>2021-11-15T18:51:23Z</time>
      </trkpt>
      <trkpt lat="44.08673" lon="6.5574">
        <ele>1104</ele>
        <time>2021-11-15T18:51:31Z</time>
      </trkpt>
      <trkpt lat="44.08606" lon="6.55742">
        <ele>1109</ele>
        <time>2021-11-15T18:51:47Z</time>
      </trkpt>
      <trkpt lat="44.08596" lon="6.55748">
        <ele>1109</ele>
        <time>2021-11-15T18:51:49Z</time>
      </trkpt>
      <trkpt lat="44.08597" lon="6.55767">
        <ele>1107</ele>
        <time>2021-11-15T18:51:52Z</time>
      </trkpt>
      <trkpt lat="44.08594" lon="6.55797">
        <ele>1104</ele>
        <time>2021-11-15T18:51:57Z</time>
      </trkpt>
      <trkpt lat="44.08581" lon="6.55825">
        <ele>1102</ele>
        <time>2021-11-15T18:52:03Z</time>
      </trkpt>
      <trkpt lat="44.08559" lon="6.5585">
        <ele>1100</ele>
        <time>2021-11-15T18:52:10Z</time>
      </trkpt>
      <trkpt lat="44.08537" lon="6.55865">
        <ele>1099</ele>
        <time>2021-11-15T18:52:15Z</time>
      </trkpt>
      <trkpt lat="44.08514" lon="6.55876">
        <ele>1099</ele>
        <time>2021-11-15T18:52:21Z</time>
      </trkpt>
      <trkpt lat="44.08439" lon="6.55904">
        <ele>1099</ele>
        <time>2021-11-15T18:52:39Z</time>
      </trkpt>
      <trkpt lat="44.08422" lon="6.55925">
        <ele>1097</ele>
        <time>2021-11-15T18:52:44Z</time>
      </trkpt>
      <trkpt lat="44.08405" lon="6.55939">
        <ele>1097</ele>
        <time>2021-11-15T18:52:49Z</time>
      </trkpt>
      <trkpt lat="44.08384" lon="6.55948">
        <ele>1098</ele>
        <time>2021-11-15T18:52:54Z</time>
      </trkpt>
      <trkpt lat="44.08376" lon="6.55949">
        <ele>1099</ele>
        <time>2021-11-15T18:52:56Z</time>
      </trkpt>
      <trkpt lat="44.08352" lon="6.5597">
        <ele>1099</ele>
        <time>2021-11-15T18:53:03Z</time>
      </trkpt>
      <trkpt lat="44.08235" lon="6.5604">
        <ele>1099</ele>
        <time>2021-11-15T18:53:32Z</time>
      </trkpt>
      <trkpt lat="44.08219" lon="6.56056">
        <ele>1099</ele>
        <time>2021-11-15T18:53:37Z</time>
      </trkpt>
      <trkpt lat="44.08186" lon="6.56126">
        <ele>1095</ele>
        <time>2021-11-15T18:53:51Z</time>
      </trkpt>
      <trkpt lat="44.08169" lon="6.56147">
        <ele>1096</ele>
        <time>2021-11-15T18:53:56Z</time>
      </trkpt>
      <trkpt lat="44.08075" lon="6.56231">
        <ele>1088</ele>
        <time>2021-11-15T18:54:23Z</time>
      </trkpt>
      <trkpt lat="44.08019" lon="6.56254">
        <ele>1090</ele>
        <time>2021-11-15T18:54:36Z</time>
      </trkpt>
      <trkpt lat="44.07933" lon="6.56387">
        <ele>1078</ele>
        <time>2021-11-15T18:55:06Z</time>
      </trkpt>
      <trkpt lat="44.07889" lon="6.56473">
        <ele>1073</ele>
        <time>2021-11-15T18:55:24Z</time>
      </trkpt>
      <trkpt lat="44.07862" lon="6.56505">
        <ele>1072</ele>
        <time>2021-11-15T18:55:32Z</time>
      </trkpt>
      <trkpt lat="44.07809" lon="6.56547">
        <ele>1077</ele>
        <time>2021-11-15T18:55:46Z</time>
      </trkpt>
      <trkpt lat="44.07788" lon="6.56567">
        <ele>1079</ele>
        <time>2021-11-15T18:55:52Z</time>
      </trkpt>
      <trkpt lat="44.07759" lon="6.5662">
        <ele>1075</ele>
        <time>2021-11-15T18:56:04Z</time>
      </trkpt>
      <trkpt lat="44.07711" lon="6.56721">
        <ele>1070</ele>
        <time>2021-11-15T18:56:24Z</time>
      </trkpt>
      <trkpt lat="44.07696" lon="6.56745">
        <ele>1067</ele>
        <time>2021-11-15T18:56:29Z</time>
      </trkpt>
      <trkpt lat="44.07632" lon="6.56809">
        <ele>1064</ele>
        <time>2021-11-15T18:56:48Z</time>
      </trkpt>
      <trkpt lat="44.07625" lon="6.56822">
        <ele>1062</ele>
        <time>2021-11-15T18:56:50Z</time>
      </trkpt>
      <trkpt lat="44.07622" lon="6.5685">
        <ele>1057</ele>
        <time>2021-11-15T18:56:55Z</time>
      </trkpt>
      <trkpt lat="44.07625" lon="6.56928">
        <ele>1052</ele>
        <time>2021-11-15T18:57:08Z</time>
      </trkpt>
      <trkpt lat="44.07614" lon="6.56965">
        <ele>1055</ele>
        <time>2021-11-15T18:57:15Z</time>
      </trkpt>
      <trkpt lat="44.07551" lon="6.57051">
        <ele>1059</ele>
        <time>2021-11-15T18:57:35Z</time>
      </trkpt>
      <trkpt lat="44.07538" lon="6.57087">
        <ele>1060</ele>
        <time>2021-11-15T18:57:42Z</time>
      </trkpt>
      <trkpt lat="44.07538" lon="6.571">
        <ele>1063</ele>
        <time>2021-11-15T18:57:44Z</time>
      </trkpt>
      <trkpt lat="44.07541" lon="6.57114">
        <ele>1068</ele>
        <time>2021-11-15T18:57:47Z</time>
      </trkpt>
      <trkpt lat="44.07561" lon="6.57087">
        <ele>1066</ele>
        <time>2021-11-15T18:57:53Z</time>
      </trkpt>
      <trkpt lat="44.07585" lon="6.57083">
        <ele>1070</ele>
        <time>2021-11-15T18:57:59Z</time>
      </trkpt>
      <trkpt lat="44.07598" lon="6.57086">
        <ele>1074</ele>
        <time>2021-11-15T18:58:02Z</time>
      </trkpt>
      <trkpt lat="44.07613" lon="6.57085">
        <ele>1077</ele>
        <time>2021-11-15T18:58:06Z</time>
      </trkpt>
      <trkpt lat="44.07631" lon="6.57076">
        <ele>1079</ele>
        <time>2021-11-15T18:58:10Z</time>
      </trkpt>
      <trkpt lat="44.0763" lon="6.5709">
        <ele>1082</ele>
        <time>2021-11-15T18:58:12Z</time>
      </trkpt>
      <trkpt lat="44.0762" lon="6.5711">
        <ele>1087</ele>
        <time>2021-11-15T18:58:17Z</time>
      </trkpt>
      <trkpt lat="44.07647" lon="6.57101">
        <ele>1090</ele>
        <time>2021-11-15T18:58:23Z</time>
      </trkpt>
      <trkpt lat="44.07648" lon="6.57106">
        <ele>1092</ele>
        <time>2021-11-15T18:58:24Z</time>
      </trkpt>
      <trkpt lat="44.07631" lon="6.57134">
        <ele>1098</ele>
        <time>2021-11-15T18:58:30Z</time>
      </trkpt>
      <trkpt lat="44.07623" lon="6.57141">
        <ele>1098</ele>
        <time>2021-11-15T18:58:32Z</time>
      </trkpt>
      <trkpt lat="44.07582" lon="6.57194">
        <ele>1107</ele>
        <time>2021-11-15T18:58:45Z</time>
      </trkpt>
      <trkpt lat="44.07575" lon="6.57212">
        <ele>1111</ele>
        <time>2021-11-15T18:58:49Z</time>
      </trkpt>
      <trkpt lat="44.0756" lon="6.57219">
        <ele>1108</ele>
        <time>2021-11-15T18:58:52Z</time>
      </trkpt>
      <trkpt lat="44.07563" lon="6.57222">
        <ele>1110</ele>
        <time>2021-11-15T18:58:53Z</time>
      </trkpt>
      <trkpt lat="44.0757" lon="6.57221">
        <ele>1112</ele>
        <time>2021-11-15T18:58:55Z</time>
      </trkpt>
      <trkpt lat="44.07569" lon="6.57225">
        <ele>1113</ele>
        <time>2021-11-15T18:58:56Z</time>
      </trkpt>
      <trkpt lat="44.07554" lon="6.57238">
        <ele>1113</ele>
        <time>2021-11-15T18:59:00Z</time>
      </trkpt>
      <trkpt lat="44.0752" lon="6.57279">
        <ele>1118</ele>
        <time>2021-11-15T18:59:10Z</time>
      </trkpt>
      <trkpt lat="44.07502" lon="6.57309">
        <ele>1125</ele>
        <time>2021-11-15T18:59:17Z</time>
      </trkpt>
      <trkpt lat="44.07482" lon="6.57352">
        <ele>1137</ele>
        <time>2021-11-15T18:59:25Z</time>
      </trkpt>
      <trkpt lat="44.07473" lon="6.57363">
        <ele>1138</ele>
        <time>2021-11-15T18:59:28Z</time>
      </trkpt>
      <trkpt lat="44.07475" lon="6.57367">
        <ele>1141</ele>
        <time>2021-11-15T18:59:29Z</time>
      </trkpt>
      <trkpt lat="44.07512" lon="6.57347">
        <ele>1146</ele>
        <time>2021-11-15T18:59:38Z</time>
      </trkpt>
      <trkpt lat="44.07548" lon="6.57322">
        <ele>1147</ele>
        <time>2021-11-15T18:59:48Z</time>
      </trkpt>
      <trkpt lat="44.07564" lon="6.57317">
        <ele>1150</ele>
        <time>2021-11-15T18:59:52Z</time>
      </trkpt>
      <trkpt lat="44.07569" lon="6.57322">
        <ele>1154</ele>
        <time>2021-11-15T18:59:53Z</time>
      </trkpt>
      <trkpt lat="44.07557" lon="6.57339">
        <ele>1158</ele>
        <time>2021-11-15T18:59:57Z</time>
      </trkpt>
      <trkpt lat="44.07525" lon="6.57395">
        <ele>1171</ele>
        <time>2021-11-15T19:00:09Z</time>
      </trkpt>
    </trkseg>
  </trk>
</gpx>